Lead Hill, Arkansas
Current Conditions -  °F | °C
As of 8:53 PM on Saturday 20 Dec 2014 (Local Time) from KHRO Reporting Station
Overcast Overcast  
Wind Chill: 37°   Ceiling: 2500
Heat Index: 40°   Visibility: 7mi
Dew Point: 39°   Wind: 5mph
Humidity: 97%   Direction: 110°ESE
Pressure: 30.2"   Gusts: NA
Location:  36.42°N, 92.91°W
Report Text: KHRO 210253Z AUTO 11004KT 7SM OVC025 04/04 A3020 RMK AO2 SLP233 T00440039 52005 $
Loading
Personal Weather Stations






























Interactive Weather Map New forecast layout! Learn more

10-Day Weather Forecast

Advertisements
Track Severe Weather on mobile